Gillum, Illinois
Current Conditions -  °F | °C
As of 5:56 PM on Wednesday 26 Nov 2014 (Local Time) from KBMI Reporting Station
Few Clouds Few Clouds  
Wind Chill: 19°   Ceiling: Unl
Heat Index: 28°   Visibility: 10mi
Dew Point: 25°   Wind: 10mph
Humidity: 89%   Direction: 70°ENE
Pressure: 30.09"   Gusts: NA
Location:  40.4766°N, 88.992°W
Report Text: KBMI 262356Z 07009KT 10SM FEW040 M02/M04 A3009 RMK AO2 53005 T10221038 11016 21027 SLP209
Loading
Personal Weather Stations






























Interactive Weather Map New forecast layout! Learn more

10-Day Weather Forecast

Advertisements
Track Severe Weather on mobile